Time;durP1;ratioP1;P1;durP2;ratioP2;P2;SDS_P1;SDS_P2;PMS_P1;PMS_P2;Temp;Humidity;BMP_temperature;BMP_pressure;BME280_temperature;BME280_humidity;BME280_pressure;Samples;Min_cycle;Max_cycle;Signal;HPM_P1;HPM_P2
2024/03/01 05:06:32;;;;;;;;;34.50;31.00;;;;;;;;5760137;46;10001002;-54
2024/03/01 05:12:38;;;;;;;;;39.50;32.50;;;;;;;;6493866;31;8885;-55
2024/03/01 12:08:36;;;;;;;;;53.25;43.75;;;;;;;;6493925;39;9035;-56
2024/03/01 12:14:48;;;;;;;;;36.75;32.25;;;;;;;;6491389;47;8905;-55
2024/03/01 12:21:10;;;;;;;;;20.25;18.75;;;;;;;;6490935;39;8838;-56
2024/03/01 12:27:17;;;;;;;;;27.00;26.25;;;;;;;;6491492;39;8879;-55
2024/03/01 12:33:39;;;;;;;;;49.50;41.75;;;;;;;;6489456;39;8873;-55
2024/03/01 12:39:47;;;;;;;;;30.75;25.25;;;;;;;;6490393;39;9027;-54
2024/03/01 12:45:58;;;;;;;;;32.00;27.75;;;;;;;;6489974;39;8866;-56
2024/03/01 12:52:39;;;;;;;;;40.25;35.25;;;;;;;;6491494;31;8929;-55
2024/03/01 12:59:15;;;;;;;;;43.50;36.00;;;;;;;;6490347;39;9512;-55
2024/03/01 13:05:26;;;;;;;;;33.75;31.25;;;;;;;;6490548;47;9033;-58
2024/03/01 13:11:31;;;;;;;;;34.25;30.50;;;;;;;;6490637;46;9130;-55
2024/03/01 13:17:46;;;;;;;;;34.25;33.75;;;;;;;;6491526;39;8916;-56
2024/03/01 13:24:11;;;;;;;;;53.00;44.00;;;;;;;;6493434;31;9157;-55
2024/03/01 13:30:26;;;;;;;;;36.00;27.75;;;;;;;;6490461;31;9010;-56
2024/03/01 13:36:35;;;;;;;;;29.50;28.00;;;;;;;;6490763;39;9567;-54
2024/03/01 13:43:01;;;;;;;;;37.75;35.25;;;;;;;;6491981;46;8872;-53
2024/03/01 13:49:08;;;;;;;;;26.25;26.25;;;;;;;;6490861;39;9005;-57
2024/03/01 13:55:13;;;;;;;;;37.25;35.50;;;;;;;;6492235;39;8871;-52
2024/03/01 14:01:24;;;;;;;;;30.00;26.25;;;;;;;;6490884;39;8948;-56
2024/03/01 14:07:27;;;;;;;;;30.50;26.25;;;;;;;;6492039;31;9298;-56
2024/03/01 14:13:31;;;;;;;;;27.25;25.25;;;;;;;;6491065;31;8876;-54
2024/03/01 14:19:33;;;;;;;;;30.00;27.00;;;;;;;;6483954;39;9007;-52
2024/03/01 14:25:36;;;;;;;;;42.00;36.50;;;;;;;;6488956;39;8975;-55
2024/03/01 14:32:00;;;;;;;;;29.75;28.25;;;;;;;;6487195;39;9571;-57
2024/03/01 14:38:21;;;;;;;;;35.00;31.25;;;;;;;;6490112;39;8888;-55
2024/03/01 14:44:27;;;;;;;;;55.75;45.75;;;;;;;;6490367;39;9050;-54
2024/03/01 14:50:31;;;;;;;;;29.00;28.75;;;;;;;;6490469;46;8867;-54
2024/03/01 14:56:33;;;;;;;;;48.75;41.25;;;;;;;;6491036;46;8890;-55
2024/03/01 15:02:37;;;;;;;;;29.75;26.50;;;;;;;;6490085;46;9026;-54
2024/03/01 15:08:41;;;;;;;;;31.00;27.50;;;;;;;;6488312;46;8935;-54
2024/03/01 15:14:45;;;;;;;;;33.00;30.00;;;;;;;;6486745;39;8876;-53
2024/03/01 15:20:47;;;;;;;;;42.75;36.00;;;;;;;;6488821;39;8927;-51
2024/03/01 15:26:51;;;;;;;;;27.25;25.75;;;;;;;;6490227;39;9031;-54
2024/03/01 15:32:53;;;;;;;;;21.25;19.00;;;;;;;;6489539;39;9053;-55
2024/03/01 15:38:56;;;;;;;;;26.00;25.25;;;;;;;;6490977;31;8982;-55
2024/03/01 15:44:59;;;;;;;;;24.00;21.25;;;;;;;;6490528;46;9000;-58
2024/03/01 15:51:03;;;;;;;;;22.33;20.67;;;;;;;;6490795;31;8966;-54
2024/03/01 15:57:06;;;;;;;;;26.25;24.25;;;;;;;;6491653;39;8878;-56
2024/03/01 16:03:08;;;;;;;;;16.75;16.00;;;;;;;;6490104;31;9046;-56
2024/03/01 16:09:11;;;;;;;;;24.00;23.75;;;;;;;;6489926;47;8892;-55
2024/03/01 16:15:13;;;;;;;;;24.25;24.25;;;;;;;;6490150;39;8892;-56
2024/03/01 16:21:17;;;;;;;;;23.25;23.25;;;;;;;;6490278;39;8940;-57
2024/03/01 16:27:19;;;;;;;;;12.25;11.50;;;;;;;;6490294;47;8912;-55
2024/03/01 16:33:22;;;;;;;;;25.00;23.75;;;;;;;;6489058;31;8901;-55
2024/03/01 16:39:33;;;;;;;;;26.50;23.00;;;;;;;;6490200;39;9512;-53
2024/03/01 16:45:38;;;;;;;;;29.50;25.75;;;;;;;;6490875;39;8891;-57
2024/03/01 16:51:42;;;;;;;;;24.25;21.50;;;;;;;;6491165;31;8962;-54
2024/03/01 16:57:44;;;;;;;;;31.50;28.75;;;;;;;;6492093;39;8994;-54
2024/03/01 17:03:46;;;;;;;;;28.75;28.25;;;;;;;;6491566;39;9586;-54
2024/03/01 17:09:49;;;;;;;;;30.75;24.25;;;;;;;;6491238;46;8896;-57
2024/03/01 17:15:53;;;;;;;;;26.25;22.00;;;;;;;;6491852;31;8875;-52
2024/03/01 17:22:00;;;;;;;;;23.00;18.25;;;;;;;;6491492;39;8973;-55
2024/03/01 17:28:04;;;;;;;;;18.75;18.00;;;;;;;;6491310;31;8998;-56
2024/03/01 17:34:06;;;;;;;;;22.25;18.00;;;;;;;;6492275;39;8915;-54
2024/03/01 17:40:09;;;;;;;;;26.50;23.50;;;;;;;;6492169;39;8894;-56
2024/03/01 17:46:11;;;;;;;;;28.25;21.75;;;;;;;;6491802;31;8995;-57
2024/03/01 17:52:13;;;;;;;;;17.25;14.50;;;;;;;;6491595;39;9060;-54
2024/03/01 17:58:15;;;;;;;;;21.75;20.50;;;;;;;;6491205;39;9597;-54
2024/03/01 18:04:18;;;;;;;;;28.50;23.75;;;;;;;;6490402;39;8955;-55
2024/03/01 18:10:20;;;;;;;;;20.50;18.50;;;;;;;;6491584;39;8915;-53
2024/03/01 18:16:27;;;;;;;;;21.75;20.25;;;;;;;;6490851;39;8868;-54
2024/03/01 18:22:29;;;;;;;;;16.50;15.50;;;;;;;;6490415;46;8851;-52
2024/03/01 18:28:32;;;;;;;;;17.75;15.00;;;;;;;;6491351;39;8923;-53
2024/03/01 18:34:36;;;;;;;;;24.00;22.40;;;;;;;;6431509;36;5001423;-55
2024/03/01 18:40:39;;;;;;;;;21.75;18.75;;;;;;;;6490694;31;8876;-53
2024/03/01 18:46:43;;;;;;;;;20.25;15.75;;;;;;;;6489873;46;8919;-55
2024/03/01 18:52:45;;;;;;;;;24.25;24.25;;;;;;;;6491116;39;9479;-55
2024/03/01 18:58:47;;;;;;;;;20.00;19.75;;;;;;;;6491076;39;8876;-54
2024/03/01 19:04:51;;;;;;;;;20.75;19.00;;;;;;;;6490096;46;8928;-55
2024/03/01 19:10:53;;;;;;;;;17.25;15.50;;;;;;;;6488904;46;8909;-55
2024/03/01 19:17:00;;;;;;;;;16.00;15.50;;;;;;;;6490010;46;8889;-56
2024/03/01 19:23:04;;;;;;;;;21.75;20.50;;;;;;;;6489490;39;8861;-54
2024/03/01 19:29:06;;;;;;;;;14.25;14.25;;;;;;;;6490044;39;9542;-54
2024/03/01 19:35:13;;;;;;;;;22.25;20.50;;;;;;;;6488945;39;8849;-55
2024/03/01 19:41:18;;;;;;;;;22.75;20.50;;;;;;;;6489064;39;8873;-53
2024/03/01 19:47:21;;;;;;;;;20.75;15.25;;;;;;;;6490100;39;8848;-57
2024/03/01 19:53:24;;;;;;;;;21.75;18.75;;;;;;;;6489547;39;9489;-55
2024/03/01 19:59:28;;;;;;;;;15.00;10.75;;;;;;;;6489546;39;8860;-55
2024/03/01 20:05:30;;;;;;;;;21.50;17.00;;;;;;;;6488991;39;8986;-56
2024/03/01 20:11:33;;;;;;;;;18.00;17.75;;;;;;;;6489376;47;8944;-57
2024/03/01 20:17:37;;;;;;;;;11.75;11.75;;;;;;;;6489641;39;8919;-54
2024/03/01 20:23:39;;;;;;;;;21.75;19.00;;;;;;;;6491786;39;8881;-55
2024/03/01 20:29:51;;;;;;;;;17.25;17.25;;;;;;;;6491267;46;8924;-54
2024/03/01 20:35:53;;;;;;;;;19.75;16.25;;;;;;;;6490090;46;8881;-56
2024/03/01 20:41:57;;;;;;;;;13.75;13.00;;;;;;;;6491125;46;8888;-52
2024/03/01 20:48:01;;;;;;;;;17.50;15.75;;;;;;;;6490834;31;9070;-56
2024/03/01 20:54:06;;;;;;;;;15.75;15.75;;;;;;;;6490221;39;8951;-54
2024/03/01 21:00:13;;;;;;;;;13.75;13.00;;;;;;;;6491621;31;8837;-55
2024/03/01 21:06:15;;;;;;;;;16.75;11.75;;;;;;;;6490829;46;8913;-53
2024/03/01 21:12:19;;;;;;;;;16.75;13.25;;;;;;;;6490650;39;9099;-54
2024/03/01 21:18:21;;;;;;;;;11.50;7.00;;;;;;;;6491020;39;8960;-54
2024/03/01 21:24:24;;;;;;;;;13.50;13.50;;;;;;;;6490358;31;8880;-54
2024/03/01 21:30:28;;;;;;;;;7.00;7.00;;;;;;;;6490037;39;8913;-55
2024/03/01 21:36:30;;;;;;;;;19.25;18.00;;;;;;;;6491136;31;8881;-56
2024/03/01 21:42:33;;;;;;;;;12.00;10.25;;;;;;;;6490568;31;8829;-54
2024/03/01 21:48:35;;;;;;;;;18.50;18.50;;;;;;;;6490222;31;8865;-54
2024/03/01 21:54:39;;;;;;;;;21.25;18.25;;;;;;;;6490396;46;8872;-54
2024/03/01 22:00:41;;;;;;;;;22.33;20.67;;;;;;;;6490723;39;8885;-52
2024/03/01 22:06:43;;;;;;;;;25.25;22.50;;;;;;;;6490533;39;9121;-55
2024/03/01 22:12:46;;;;;;;;;19.25;19.25;;;;;;;;6490887;39;9008;-54
2024/03/01 22:18:49;;;;;;;;;29.25;26.00;;;;;;;;6490678;39;8912;-54
2024/03/01 22:24:52;;;;;;;;;19.75;18.50;;;;;;;;6490616;31;8833;-55
2024/03/01 22:30:57;;;;;;;;;22.25;22.25;;;;;;;;6490714;31;8920;-54
2024/03/01 22:36:59;;;;;;;;;25.75;23.25;;;;;;;;6489877;46;8923;-53
2024/03/01 22:43:02;;;;;;;;;18.75;17.25;;;;;;;;6490571;39;9534;-55
2024/03/01 22:49:09;;;;;;;;;17.75;17.00;;;;;;;;6490164;46;8916;-55
2024/03/01 22:55:20;;;;;;;;;27.75;23.75;;;;;;;;6489851;39;8837;-53
2024/03/01 23:01:27;;;;;;;;;24.25;22.75;;;;;;;;6489349;39;8897;-55
2024/03/01 23:07:30;;;;;;;;;25.25;23.00;;;;;;;;6489425;39;8905;-54
2024/03/01 23:13:39;;;;;;;;;28.25;27.50;;;;;;;;6490063;46;8963;-53
2024/03/01 23:19:44;;;;;;;;;27.25;25.00;;;;;;;;6490512;31;8956;-53
2024/03/01 23:25:47;;;;;;;;;20.50;18.50;;;;;;;;6490207;46;8885;-54
2024/03/01 23:31:50;;;;;;;;;23.75;22.50;;;;;;;;6489149;46;8960;-53
2024/03/01 23:37:52;;;;;;;;;20.00;17.25;;;;;;;;6488689;46;8893;-52
2024/03/01 23:43:54;;;;;;;;;25.25;24.75;;;;;;;;6489631;46;8833;-52
2024/03/01 23:49:57;;;;;;;;;29.00;25.50;;;;;;;;6488759;39;8917;-55
2024/03/01 23:56:00;;;;;;;;;29.00;27.25;;;;;;;;6489417;39;9048;-52
